sensor_id;sensor_type;location;lat;lon;timestamp;P1;durP1;ratioP1;P2;durP2;ratioP2
39190;SDS011;24916;51.676;6.614;2023-12-20T00:01:01;2.13;;;1.00;;
39190;SDS011;24916;51.676;6.614;2023-12-20T00:03:26;2.80;;;1.10;;
39190;SDS011;24916;51.676;6.614;2023-12-20T00:05:52;1.58;;;0.82;;
39190;SDS011;24916;51.676;6.614;2023-12-20T00:08:17;1.63;;;1.00;;
39190;SDS011;24916;51.676;6.614;2023-12-20T00:10:43;1.48;;;0.90;;
39190;SDS011;24916;51.676;6.614;2023-12-20T00:13:08;1.35;;;1.00;;
39190;SDS011;24916;51.676;6.614;2023-12-20T00:15:34;1.48;;;0.80;;
39190;SDS011;24916;51.676;6.614;2023-12-20T00:17:59;1.30;;;0.80;;
39190;SDS011;24916;51.676;6.614;2023-12-20T00:20:25;1.50;;;0.90;;
39190;SDS011;24916;51.676;6.614;2023-12-20T00:22:51;1.88;;;1.00;;
39190;SDS011;24916;51.676;6.614;2023-12-20T00:25:16;2.17;;;1.00;;
39190;SDS011;24916;51.676;6.614;2023-12-20T00:27:41;1.52;;;0.90;;
39190;SDS011;24916;51.676;6.614;2023-12-20T00:30:07;1.90;;;1.00;;
39190;SDS011;24916;51.676;6.614;2023-12-20T00:32:32;1.17;;;0.88;;
39190;SDS011;24916;51.676;6.614;2023-12-20T00:34:57;1.55;;;1.05;;
39190;SDS011;24916;51.676;6.614;2023-12-20T00:37:23;1.27;;;0.90;;
39190;SDS011;24916;51.676;6.614;2023-12-20T00:39:49;1.48;;;0.90;;
39190;SDS011;24916;51.676;6.614;2023-12-20T00:42:14;1.63;;;1.10;;
39190;SDS011;24916;51.676;6.614;2023-12-20T00:44:39;2.85;;;1.13;;
39190;SDS011;24916;51.676;6.614;2023-12-20T00:47:04;1.90;;;0.98;;
39190;SDS011;24916;51.676;6.614;2023-12-20T00:49:29;1.73;;;1.13;;
39190;SDS011;24916;51.676;6.614;2023-12-20T00:51:55;2.20;;;0.90;;
39190;SDS011;24916;51.676;6.614;2023-12-20T00:54:20;1.35;;;0.90;;
39190;SDS011;24916;51.676;6.614;2023-12-20T00:56:45;1.70;;;1.10;;
39190;SDS011;24916;51.676;6.614;2023-12-20T00:59:11;1.75;;;0.90;;
39190;SDS011;24916;51.676;6.614;2023-12-20T01:01:36;1.15;;;0.80;;
39190;SDS011;24916;51.676;6.614;2023-12-20T01:04:01;1.63;;;0.98;;
39190;SDS011;24916;51.676;6.614;2023-12-20T01:06:26;0.93;;;0.80;;
39190;SDS011;24916;51.676;6.614;2023-12-20T01:08:51;2.22;;;1.10;;
39190;SDS011;24916;51.676;6.614;2023-12-20T01:11:17;1.25;;;0.80;;
39190;SDS011;24916;51.676;6.614;2023-12-20T01:13:42;1.23;;;0.93;;
39190;SDS011;24916;51.676;6.614;2023-12-20T01:16:10;1.60;;;1.00;;
39190;SDS011;24916;51.676;6.614;2023-12-20T01:18:35;1.52;;;0.90;;
39190;SDS011;24916;51.676;6.614;2023-12-20T01:21:03;1.25;;;0.73;;
39190;SDS011;24916;51.676;6.614;2023-12-20T01:23:29;1.67;;;0.95;;
39190;SDS011;24916;51.676;6.614;2023-12-20T01:25:54;1.45;;;0.90;;
39190;SDS011;24916;51.676;6.614;2023-12-20T01:28:19;2.03;;;0.90;;
39190;SDS011;24916;51.676;6.614;2023-12-20T01:30:45;1.83;;;1.08;;
39190;SDS011;24916;51.676;6.614;2023-12-20T01:33:10;1.35;;;0.90;;
39190;SDS011;24916;51.676;6.614;2023-12-20T01:35:35;2.15;;;0.88;;
39190;SDS011;24916;51.676;6.614;2023-12-20T01:38:00;1.77;;;1.02;;
39190;SDS011;24916;51.676;6.614;2023-12-20T01:40:25;1.13;;;0.77;;
39190;SDS011;24916;51.676;6.614;2023-12-20T01:43:00;2.03;;;1.00;;
39190;SDS011;24916;51.676;6.614;2023-12-20T01:45:26;1.20;;;0.80;;
39190;SDS011;24916;51.676;6.614;2023-12-20T01:47:51;1.08;;;0.70;;
39190;SDS011;24916;51.676;6.614;2023-12-20T01:50:16;1.05;;;0.80;;
39190;SDS011;24916;51.676;6.614;2023-12-20T01:52:42;1.30;;;0.88;;
39190;SDS011;24916;51.676;6.614;2023-12-20T01:55:08;1.15;;;0.70;;
39190;SDS011;24916;51.676;6.614;2023-12-20T01:57:38;1.30;;;1.00;;
39190;SDS011;24916;51.676;6.614;2023-12-20T02:00:03;1.10;;;0.63;;
39190;SDS011;24916;51.676;6.614;2023-12-20T02:02:29;3.45;;;0.85;;
39190;SDS011;24916;51.676;6.614;2023-12-20T02:04:55;0.73;;;0.70;;
39190;SDS011;24916;51.676;6.614;2023-12-20T02:07:20;1.05;;;0.90;;
39190;SDS011;24916;51.676;6.614;2023-12-20T02:09:46;1.88;;;1.00;;
39190;SDS011;24916;51.676;6.614;2023-12-20T02:12:11;1.58;;;0.75;;
39190;SDS011;24916;51.676;6.614;2023-12-20T02:14:36;1.30;;;0.80;;
39190;SDS011;24916;51.676;6.614;2023-12-20T02:17:02;1.40;;;0.80;;
39190;SDS011;24916;51.676;6.614;2023-12-20T02:19:27;1.92;;;1.13;;
39190;SDS011;24916;51.676;6.614;2023-12-20T02:22:04;1.50;;;1.00;;
39190;SDS011;24916;51.676;6.614;2023-12-20T02:24:29;1.58;;;0.98;;
39190;SDS011;24916;51.676;6.614;2023-12-20T02:26:54;1.27;;;0.77;;
39190;SDS011;24916;51.676;6.614;2023-12-20T02:29:20;1.20;;;0.80;;
39190;SDS011;24916;51.676;6.614;2023-12-20T02:34:15;1.30;;;0.82;;
39190;SDS011;24916;51.676;6.614;2023-12-20T02:36:40;1.60;;;0.80;;
39190;SDS011;24916;51.676;6.614;2023-12-20T02:39:05;2.10;;;0.90;;
39190;SDS011;24916;51.676;6.614;2023-12-20T02:41:30;3.28;;;0.80;;
39190;SDS011;24916;51.676;6.614;2023-12-20T02:43:55;2.77;;;1.10;;
39190;SDS011;24916;51.676;6.614;2023-12-20T02:46:21;2.23;;;1.00;;
39190;SDS011;24916;51.676;6.614;2023-12-20T02:48:46;2.20;;;1.00;;
39190;SDS011;24916;51.676;6.614;2023-12-20T02:51:12;1.33;;;1.00;;
39190;SDS011;24916;51.676;6.614;2023-12-20T02:53:37;1.45;;;0.80;;
39190;SDS011;24916;51.676;6.614;2023-12-20T02:56:02;2.00;;;0.90;;
39190;SDS011;24916;51.676;6.614;2023-12-20T02:58:28;1.83;;;0.60;;
39190;SDS011;24916;51.676;6.614;2023-12-20T03:00:53;1.70;;;0.97;;
39190;SDS011;24916;51.676;6.614;2023-12-20T03:03:18;1.70;;;0.83;;
39190;SDS011;24916;51.676;6.614;2023-12-20T03:05:43;1.40;;;0.90;;
39190;SDS011;24916;51.676;6.614;2023-12-20T03:08:10;1.48;;;0.85;;
39190;SDS011;24916;51.676;6.614;2023-12-20T03:10:36;1.10;;;0.70;;
39190;SDS011;24916;51.676;6.614;2023-12-20T03:13:01;1.90;;;1.02;;
39190;SDS011;24916;51.676;6.614;2023-12-20T03:15:26;1.95;;;1.10;;
39190;SDS011;24916;51.676;6.614;2023-12-20T03:17:51;1.92;;;1.05;;
39190;SDS011;24916;51.676;6.614;2023-12-20T03:20:16;2.15;;;0.90;;
39190;SDS011;24916;51.676;6.614;2023-12-20T03:22:42;1.42;;;0.93;;
39190;SDS011;24916;51.676;6.614;2023-12-20T03:25:07;1.80;;;0.90;;
39190;SDS011;24916;51.676;6.614;2023-12-20T03:27:32;1.90;;;1.20;;
39190;SDS011;24916;51.676;6.614;2023-12-20T03:29:58;1.83;;;0.98;;
39190;SDS011;24916;51.676;6.614;2023-12-20T03:32:23;1.27;;;0.80;;
39190;SDS011;24916;51.676;6.614;2023-12-20T03:34:48;2.10;;;0.88;;
39190;SDS011;24916;51.676;6.614;2023-12-20T03:37:13;1.63;;;1.00;;
39190;SDS011;24916;51.676;6.614;2023-12-20T03:39:38;1.27;;;0.80;;
39190;SDS011;24916;51.676;6.614;2023-12-20T03:42:04;1.98;;;1.00;;
39190;SDS011;24916;51.676;6.614;2023-12-20T03:44:29;1.90;;;0.88;;
39190;SDS011;24916;51.676;6.614;2023-12-20T03:46:54;2.13;;;0.75;;
39190;SDS011;24916;51.676;6.614;2023-12-20T03:49:19;1.73;;;0.93;;
39190;SDS011;24916;51.676;6.614;2023-12-20T03:51:44;1.48;;;1.00;;
39190;SDS011;24916;51.676;6.614;2023-12-20T03:54:10;1.80;;;1.00;;
39190;SDS011;24916;51.676;6.614;2023-12-20T03:56:35;1.98;;;1.08;;
39190;SDS011;24916;51.676;6.614;2023-12-20T03:59:00;2.28;;;0.85;;
39190;SDS011;24916;51.676;6.614;2023-12-20T04:01:25;1.60;;;0.80;;
39190;SDS011;24916;51.676;6.614;2023-12-20T04:03:51;1.17;;;0.90;;
39190;SDS011;24916;51.676;6.614;2023-12-20T04:06:16;2.90;;;1.15;;
39190;SDS011;24916;51.676;6.614;2023-12-20T04:08:42;2.00;;;1.10;;
39190;SDS011;24916;51.676;6.614;2023-12-20T04:11:07;1.10;;;0.90;;
39190;SDS011;24916;51.676;6.614;2023-12-20T04:13:32;2.15;;;1.00;;
39190;SDS011;24916;51.676;6.614;2023-12-20T04:15:57;1.35;;;0.90;;
39190;SDS011;24916;51.676;6.614;2023-12-20T04:18:22;1.23;;;0.85;;
39190;SDS011;24916;51.676;6.614;2023-12-20T04:20:48;1.77;;;0.93;;
39190;SDS011;24916;51.676;6.614;2023-12-20T04:23:14;2.17;;;1.05;;
39190;SDS011;24916;51.676;6.614;2023-12-20T04:25:39;2.35;;;1.00;;
39190;SDS011;24916;51.676;6.614;2023-12-20T04:28:04;1.42;;;0.80;;
39190;SDS011;24916;51.676;6.614;2023-12-20T04:30:30;1.30;;;0.75;;
39190;SDS011;24916;51.676;6.614;2023-12-20T04:32:55;2.30;;;1.00;;
39190;SDS011;24916;51.676;6.614;2023-12-20T04:35:20;1.37;;;0.90;;
39190;SDS011;24916;51.676;6.614;2023-12-20T04:37:45;1.43;;;1.00;;
39190;SDS011;24916;51.676;6.614;2023-12-20T04:40:11;2.17;;;0.95;;
39190;SDS011;24916;51.676;6.614;2023-12-20T04:42:36;1.60;;;0.90;;
39190;SDS011;24916;51.676;6.614;2023-12-20T04:45:01;1.45;;;0.95;;
39190;SDS011;24916;51.676;6.614;2023-12-20T04:47:27;1.95;;;0.93;;
39190;SDS011;24916;51.676;6.614;2023-12-20T04:49:52;1.55;;;0.88;;
39190;SDS011;24916;51.676;6.614;2023-12-20T04:52:17;1.63;;;1.10;;
39190;SDS011;24916;51.676;6.614;2023-12-20T04:54:42;1.67;;;1.00;;
39190;SDS011;24916;51.676;6.614;2023-12-20T04:57:08;2.35;;;1.00;;
39190;SDS011;24916;51.676;6.614;2023-12-20T04:59:33;1.95;;;1.00;;
39190;SDS011;24916;51.676;6.614;2023-12-20T05:01:58;2.45;;;1.20;;
39190;SDS011;24916;51.676;6.614;2023-12-20T05:04:23;2.90;;;0.93;;
39190;SDS011;24916;51.676;6.614;2023-12-20T05:06:49;1.58;;;1.00;;
39190;SDS011;24916;51.676;6.614;2023-12-20T05:09:15;1.70;;;0.93;;
39190;SDS011;24916;51.676;6.614;2023-12-20T05:11:40;3.10;;;0.90;;
39190;SDS011;24916;51.676;6.614;2023-12-20T05:14:05;2.00;;;0.93;;
39190;SDS011;24916;51.676;6.614;2023-12-20T05:16:30;2.03;;;1.10;;
39190;SDS011;24916;51.676;6.614;2023-12-20T05:18:56;1.45;;;0.80;;
39190;SDS011;24916;51.676;6.614;2023-12-20T05:21:21;1.65;;;0.90;;
39190;SDS011;24916;51.676;6.614;2023-12-20T05:23:46;1.73;;;1.00;;
39190;SDS011;24916;51.676;6.614;2023-12-20T05:26:11;1.83;;;1.02;;
39190;SDS011;24916;51.676;6.614;2023-12-20T05:28:37;1.38;;;0.90;;
39190;SDS011;24916;51.676;6.614;2023-12-20T05:31:02;1.58;;;0.95;;
39190;SDS011;24916;51.676;6.614;2023-12-20T05:33:27;1.52;;;0.85;;
39190;SDS011;24916;51.676;6.614;2023-12-20T05:35:53;2.33;;;1.00;;
39190;SDS011;24916;51.676;6.614;2023-12-20T05:38:18;1.80;;;0.90;;
39190;SDS011;24916;51.676;6.614;2023-12-20T05:40:43;2.03;;;1.02;;
39190;SDS011;24916;51.676;6.614;2023-12-20T05:43:08;1.73;;;0.90;;
39190;SDS011;24916;51.676;6.614;2023-12-20T05:45:33;1.85;;;1.20;;
39190;SDS011;24916;51.676;6.614;2023-12-20T05:47:59;1.38;;;0.90;;
39190;SDS011;24916;51.676;6.614;2023-12-20T05:50:24;1.80;;;0.87;;
39190;SDS011;24916;51.676;6.614;2023-12-20T05:52:50;1.38;;;0.80;;
39190;SDS011;24916;51.676;6.614;2023-12-20T05:55:15;1.52;;;0.80;;
39190;SDS011;24916;51.676;6.614;2023-12-20T05:57:40;1.83;;;1.10;;
39190;SDS011;24916;51.676;6.614;2023-12-20T06:00:08;1.85;;;1.10;;
39190;SDS011;24916;51.676;6.614;2023-12-20T06:02:34;2.10;;;0.95;;
39190;SDS011;24916;51.676;6.614;2023-12-20T06:04:59;1.98;;;1.08;;
39190;SDS011;24916;51.676;6.614;2023-12-20T06:07:25;1.65;;;0.90;;
39190;SDS011;24916;51.676;6.614;2023-12-20T06:09:50;2.35;;;1.00;;
39190;SDS011;24916;51.676;6.614;2023-12-20T06:12:15;1.95;;;1.00;;
39190;SDS011;24916;51.676;6.614;2023-12-20T06:14:41;1.80;;;0.90;;
39190;SDS011;24916;51.676;6.614;2023-12-20T06:17:06;2.72;;;0.95;;
39190;SDS011;24916;51.676;6.614;2023-12-20T06:19:31;1.80;;;0.90;;
39190;SDS011;24916;51.676;6.614;2023-12-20T06:21:56;1.47;;;1.00;;
39190;SDS011;24916;51.676;6.614;2023-12-20T06:24:22;2.10;;;1.00;;
39190;SDS011;24916;51.676;6.614;2023-12-20T06:26:47;1.95;;;1.05;;
39190;SDS011;24916;51.676;6.614;2023-12-20T06:29:12;1.17;;;0.90;;
39190;SDS011;24916;51.676;6.614;2023-12-20T06:31:37;1.83;;;0.90;;
39190;SDS011;24916;51.676;6.614;2023-12-20T06:34:03;2.45;;;1.02;;
39190;SDS011;24916;51.676;6.614;2023-12-20T06:36:28;2.35;;;1.00;;
39190;SDS011;24916;51.676;6.614;2023-12-20T06:38:53;2.83;;;0.98;;
39190;SDS011;24916;51.676;6.614;2023-12-20T06:41:18;1.83;;;0.88;;
39190;SDS011;24916;51.676;6.614;2023-12-20T06:43:44;2.22;;;1.05;;
39190;SDS011;24916;51.676;6.614;2023-12-20T06:46:09;2.47;;;1.20;;
39190;SDS011;24916;51.676;6.614;2023-12-20T06:48:35;2.22;;;1.17;;
39190;SDS011;24916;51.676;6.614;2023-12-20T06:51:00;2.13;;;1.08;;
39190;SDS011;24916;51.676;6.614;2023-12-20T06:53:27;3.88;;;0.90;;
39190;SDS011;24916;51.676;6.614;2023-12-20T06:55:52;1.98;;;0.98;;
39190;SDS011;24916;51.676;6.614;2023-12-20T06:58:17;2.10;;;1.10;;
39190;SDS011;24916;51.676;6.614;2023-12-20T07:00:42;1.75;;;0.80;;
39190;SDS011;24916;51.676;6.614;2023-12-20T07:03:08;4.10;;;1.70;;
39190;SDS011;24916;51.676;6.614;2023-12-20T07:05:34;3.75;;;1.58;;
39190;SDS011;24916;51.676;6.614;2023-12-20T07:07:59;4.88;;;1.90;;
39190;SDS011;24916;51.676;6.614;2023-12-20T07:10:24;3.70;;;1.63;;
39190;SDS011;24916;51.676;6.614;2023-12-20T07:12:50;3.63;;;1.58;;
39190;SDS011;24916;51.676;6.614;2023-12-20T07:15:16;4.25;;;1.45;;
39190;SDS011;24916;51.676;6.614;2023-12-20T07:17:41;3.00;;;1.52;;
39190;SDS011;24916;51.676;6.614;2023-12-20T07:20:07;3.97;;;1.60;;
39190;SDS011;24916;51.676;6.614;2023-12-20T07:22:35;6.15;;;1.48;;
39190;SDS011;24916;51.676;6.614;2023-12-20T07:25:01;2.78;;;1.17;;
39190;SDS011;24916;51.676;6.614;2023-12-20T07:27:26;3.33;;;1.40;;
39190;SDS011;24916;51.676;6.614;2023-12-20T07:29:52;3.53;;;1.55;;
39190;SDS011;24916;51.676;6.614;2023-12-20T07:32:17;3.20;;;1.52;;
39190;SDS011;24916;51.676;6.614;2023-12-20T07:34:42;4.35;;;1.80;;
39190;SDS011;24916;51.676;6.614;2023-12-20T07:37:08;2.70;;;1.58;;
39190;SDS011;24916;51.676;6.614;2023-12-20T07:39:35;3.38;;;1.65;;
39190;SDS011;24916;51.676;6.614;2023-12-20T07:42:00;2.88;;;1.35;;
39190;SDS011;24916;51.676;6.614;2023-12-20T07:44:26;2.67;;;1.25;;
39190;SDS011;24916;51.676;6.614;2023-12-20T07:46:51;3.03;;;1.40;;
39190;SDS011;24916;51.676;6.614;2023-12-20T07:49:16;4.40;;;1.58;;
39190;SDS011;24916;51.676;6.614;2023-12-20T07:51:41;2.72;;;1.40;;
39190;SDS011;24916;51.676;6.614;2023-12-20T07:54:07;4.10;;;1.50;;
39190;SDS011;24916;51.676;6.614;2023-12-20T07:56:33;4.13;;;1.52;;
39190;SDS011;24916;51.676;6.614;2023-12-20T07:58:58;5.38;;;1.40;;
39190;SDS011;24916;51.676;6.614;2023-12-20T08:01:23;2.67;;;1.40;;
39190;SDS011;24916;51.676;6.614;2023-12-20T08:03:49;4.22;;;1.60;;
39190;SDS011;24916;51.676;6.614;2023-12-20T08:06:14;3.60;;;1.40;;
39190;SDS011;24916;51.676;6.614;2023-12-20T08:08:39;4.00;;;1.52;;
39190;SDS011;24916;51.676;6.614;2023-12-20T08:11:05;4.10;;;1.75;;
39190;SDS011;24916;51.676;6.614;2023-12-20T08:13:30;5.00;;;1.50;;
39190;SDS011;24916;51.676;6.614;2023-12-20T08:15:56;3.05;;;1.73;;
39190;SDS011;24916;51.676;6.614;2023-12-20T08:18:21;3.25;;;1.45;;
39190;SDS011;24916;51.676;6.614;2023-12-20T08:20:46;6.60;;;2.50;;
39190;SDS011;24916;51.676;6.614;2023-12-20T08:23:13;8.32;;;2.53;;
39190;SDS011;24916;51.676;6.614;2023-12-20T08:25:38;8.05;;;2.22;;
39190;SDS011;24916;51.676;6.614;2023-12-20T08:28:03;6.10;;;2.13;;
39190;SDS011;24916;51.676;6.614;2023-12-20T08:30:29;7.13;;;1.90;;
39190;SDS011;24916;51.676;6.614;2023-12-20T08:32:56;6.05;;;2.13;;
39190;SDS011;24916;51.676;6.614;2023-12-20T08:35:21;3.90;;;1.80;;
39190;SDS011;24916;51.676;6.614;2023-12-20T08:37:46;4.38;;;1.88;;
39190;SDS011;24916;51.676;6.614;2023-12-20T08:40:11;4.65;;;1.73;;
39190;SDS011;24916;51.676;6.614;2023-12-20T08:42:37;8.35;;;2.20;;
39190;SDS011;24916;51.676;6.614;2023-12-20T08:45:02;4.82;;;1.83;;
39190;SDS011;24916;51.676;6.614;2023-12-20T08:47:29;4.85;;;2.10;;
39190;SDS011;24916;51.676;6.614;2023-12-20T08:49:54;5.97;;;2.00;;
39190;SDS011;24916;51.676;6.614;2023-12-20T08:52:22;4.93;;;2.15;;
39190;SDS011;24916;51.676;6.614;2023-12-20T08:54:47;4.15;;;1.90;;
39190;SDS011;24916;51.676;6.614;2023-12-20T08:57:12;4.88;;;1.85;;
39190;SDS011;24916;51.676;6.614;2023-12-20T08:59:37;5.65;;;2.20;;
39190;SDS011;24916;51.676;6.614;2023-12-20T09:02:03;6.72;;;2.20;;
39190;SDS011;24916;51.676;6.614;2023-12-20T09:04:28;3.63;;;1.52;;
39190;SDS011;24916;51.676;6.614;2023-12-20T09:06:54;5.40;;;1.80;;
39190;SDS011;24916;51.676;6.614;2023-12-20T09:09:19;3.50;;;1.77;;
39190;SDS011;24916;51.676;6.614;2023-12-20T09:11:44;3.83;;;2.00;;
39190;SDS011;24916;51.676;6.614;2023-12-20T09:14:11;3.72;;;1.90;;
39190;SDS011;24916;51.676;6.614;2023-12-20T09:16:36;3.75;;;1.73;;
39190;SDS011;24916;51.676;6.614;2023-12-20T09:19:01;4.28;;;1.60;;
39190;SDS011;24916;51.676;6.614;2023-12-20T09:21:27;3.95;;;2.13;;
39190;SDS011;24916;51.676;6.614;2023-12-20T09:23:52;3.63;;;1.80;;
39190;SDS011;24916;51.676;6.614;2023-12-20T09:26:17;3.22;;;1.70;;
39190;SDS011;24916;51.676;6.614;2023-12-20T09:28:42;4.05;;;1.65;;
39190;SDS011;24916;51.676;6.614;2023-12-20T09:31:07;4.00;;;1.45;;
39190;SDS011;24916;51.676;6.614;2023-12-20T09:33:33;3.42;;;1.80;;
39190;SDS011;24916;51.676;6.614;2023-12-20T09:35:58;5.50;;;1.80;;
39190;SDS011;24916;51.676;6.614;2023-12-20T09:38:24;4.65;;;2.13;;
39190;SDS011;24916;51.676;6.614;2023-12-20T09:40:49;4.78;;;1.90;;
39190;SDS011;24916;51.676;6.614;2023-12-20T09:43:15;3.17;;;1.70;;
39190;SDS011;24916;51.676;6.614;2023-12-20T09:45:46;3.75;;;1.83;;
39190;SDS011;24916;51.676;6.614;2023-12-20T09:48:11;3.10;;;1.55;;
39190;SDS011;24916;51.676;6.614;2023-12-20T09:50:37;5.43;;;1.88;;
39190;SDS011;24916;51.676;6.614;2023-12-20T09:53:02;3.15;;;1.45;;
39190;SDS011;24916;51.676;6.614;2023-12-20T09:55:29;3.75;;;1.63;;
39190;SDS011;24916;51.676;6.614;2023-12-20T09:57:55;3.63;;;1.60;;
39190;SDS011;24916;51.676;6.614;2023-12-20T10:00:20;2.63;;;1.50;;
39190;SDS011;24916;51.676;6.614;2023-12-20T10:02:50;3.17;;;1.48;;
39190;SDS011;24916;51.676;6.614;2023-12-20T10:05:15;3.85;;;1.70;;
39190;SDS011;24916;51.676;6.614;2023-12-20T10:07:41;3.90;;;1.92;;
39190;SDS011;24916;51.676;6.614;2023-12-20T10:10:06;3.42;;;1.67;;
39190;SDS011;24916;51.676;6.614;2023-12-20T10:12:33;4.03;;;1.52;;
39190;SDS011;24916;51.676;6.614;2023-12-20T10:14:59;5.10;;;1.92;;
39190;SDS011;24916;51.676;6.614;2023-12-20T10:17:24;3.92;;;1.70;;
39190;SDS011;24916;51.676;6.614;2023-12-20T10:19:54;4.20;;;1.73;;
39190;SDS011;24916;51.676;6.614;2023-12-20T10:22:19;2.80;;;1.48;;
39190;SDS011;24916;51.676;6.614;2023-12-20T10:24:45;3.58;;;1.70;;
39190;SDS011;24916;51.676;6.614;2023-12-20T10:27:11;3.78;;;1.63;;
39190;SDS011;24916;51.676;6.614;2023-12-20T10:29:37;3.25;;;1.80;;
39190;SDS011;24916;51.676;6.614;2023-12-20T10:32:24;4.65;;;1.83;;
39190;SDS011;24916;51.676;6.614;2023-12-20T10:34:49;3.88;;;1.58;;
39190;SDS011;24916;51.676;6.614;2023-12-20T10:37:14;3.00;;;1.60;;
39190;SDS011;24916;51.676;6.614;2023-12-20T10:39:39;2.38;;;1.30;;
39190;SDS011;24916;51.676;6.614;2023-12-20T10:42:06;2.88;;;1.45;;
39190;SDS011;24916;51.676;6.614;2023-12-20T10:44:32;4.00;;;1.73;;
39190;SDS011;24916;51.676;6.614;2023-12-20T10:46:57;3.53;;;1.65;;
39190;SDS011;24916;51.676;6.614;2023-12-20T10:49:24;2.75;;;1.40;;
39190;SDS011;24916;51.676;6.614;2023-12-20T10:51:49;3.85;;;1.40;;
39190;SDS011;24916;51.676;6.614;2023-12-20T10:54:16;2.90;;;1.48;;
39190;SDS011;24916;51.676;6.614;2023-12-20T10:56:41;3.53;;;1.70;;
39190;SDS011;24916;51.676;6.614;2023-12-20T10:59:07;3.42;;;1.77;;
39190;SDS011;24916;51.676;6.614;2023-12-20T11:01:35;3.17;;;1.65;;
39190;SDS011;24916;51.676;6.614;2023-12-20T11:04:02;2.40;;;1.30;;
39190;SDS011;24916;51.676;6.614;2023-12-20T11:09:22;2.92;;;1.30;;
39190;SDS011;24916;51.676;6.614;2023-12-20T11:11:57;3.92;;;1.60;;
39190;SDS011;24916;51.676;6.614;2023-12-20T11:14:29;3.33;;;1.50;;
39190;SDS011;24916;51.676;6.614;2023-12-20T11:17:06;3.42;;;1.40;;
39190;SDS011;24916;51.676;6.614;2023-12-20T11:19:31;2.92;;;1.30;;
39190;SDS011;24916;51.676;6.614;2023-12-20T11:21:57;3.70;;;1.60;;
39190;SDS011;24916;51.676;6.614;2023-12-20T11:24:22;3.58;;;1.35;;
39190;SDS011;24916;51.676;6.614;2023-12-20T11:26:49;3.55;;;1.60;;
39190;SDS011;24916;51.676;6.614;2023-12-20T11:29:31;3.50;;;1.52;;
39190;SDS011;24916;51.676;6.614;2023-12-20T11:31:59;3.67;;;1.40;;
39190;SDS011;24916;51.676;6.614;2023-12-20T11:34:26;2.55;;;1.35;;
39190;SDS011;24916;51.676;6.614;2023-12-20T11:36:56;2.92;;;1.38;;
39190;SDS011;24916;51.676;6.614;2023-12-20T11:39:22;2.33;;;1.23;;
39190;SDS011;24916;51.676;6.614;2023-12-20T11:41:48;3.05;;;1.40;;
39190;SDS011;24916;51.676;6.614;2023-12-20T11:44:14;2.95;;;1.40;;
39190;SDS011;24916;51.676;6.614;2023-12-20T11:46:42;2.40;;;1.35;;
39190;SDS011;24916;51.676;6.614;2023-12-20T11:49:07;3.30;;;1.75;;
39190;SDS011;24916;51.676;6.614;2023-12-20T11:51:32;2.50;;;1.40;;
39190;SDS011;24916;51.676;6.614;2023-12-20T11:53:57;2.67;;;1.23;;
39190;SDS011;24916;51.676;6.614;2023-12-20T11:56:23;2.08;;;1.23;;
39190;SDS011;24916;51.676;6.614;2023-12-20T11:58:48;3.25;;;1.63;;
39190;SDS011;24916;51.676;6.614;2023-12-20T12:01:14;3.75;;;1.23;;
39190;SDS011;24916;51.676;6.614;2023-12-20T12:03:39;4.00;;;1.48;;
39190;SDS011;24916;51.676;6.614;2023-12-20T12:06:04;2.97;;;1.45;;
39190;SDS011;24916;51.676;6.614;2023-12-20T12:08:30;2.88;;;1.40;;
39190;SDS011;24916;51.676;6.614;2023-12-20T12:10:55;2.78;;;1.27;;
39190;SDS011;24916;51.676;6.614;2023-12-20T12:13:20;3.15;;;1.35;;
39190;SDS011;24916;51.676;6.614;2023-12-20T12:15:45;4.90;;;1.85;;
39190;SDS011;24916;51.676;6.614;2023-12-20T12:18:15;3.88;;;1.90;;
39190;SDS011;24916;51.676;6.614;2023-12-20T12:20:40;3.42;;;1.90;;
39190;SDS011;24916;51.676;6.614;2023-12-20T12:23:05;3.88;;;2.25;;
39190;SDS011;24916;51.676;6.614;2023-12-20T12:25:32;5.25;;;2.25;;
39190;SDS011;24916;51.676;6.614;2023-12-20T12:27:57;5.15;;;2.58;;
39190;SDS011;24916;51.676;6.614;2023-12-20T12:30:23;5.55;;;2.35;;
39190;SDS011;24916;51.676;6.614;2023-12-20T12:32:48;7.25;;;2.90;;
39190;SDS011;24916;51.676;6.614;2023-12-20T12:35:14;4.75;;;2.63;;
39190;SDS011;24916;51.676;6.614;2023-12-20T12:37:40;6.60;;;3.17;;
39190;SDS011;24916;51.676;6.614;2023-12-20T12:40:12;5.70;;;3.00;;
39190;SDS011;24916;51.676;6.614;2023-12-20T12:42:38;6.65;;;3.17;;
39190;SDS011;24916;51.676;6.614;2023-12-20T12:45:03;6.32;;;2.97;;
39190;SDS011;24916;51.676;6.614;2023-12-20T12:47:29;5.88;;;3.05;;
39190;SDS011;24916;51.676;6.614;2023-12-20T12:49:55;6.60;;;3.40;;
39190;SDS011;24916;51.676;6.614;2023-12-20T12:52:21;6.38;;;3.10;;
39190;SDS011;24916;51.676;6.614;2023-12-20T12:54:46;6.35;;;3.08;;
39190;SDS011;24916;51.676;6.614;2023-12-20T12:57:12;7.63;;;3.42;;
39190;SDS011;24916;51.676;6.614;2023-12-20T12:59:37;9.50;;;3.22;;
39190;SDS011;24916;51.676;6.614;2023-12-20T13:02:02;6.38;;;3.58;;
39190;SDS011;24916;51.676;6.614;2023-12-20T13:04:28;6.80;;;3.78;;
39190;SDS011;24916;51.676;6.614;2023-12-20T13:06:53;7.57;;;3.33;;
39190;SDS011;24916;51.676;6.614;2023-12-20T13:09:18;7.95;;;4.22;;
39190;SDS011;24916;51.676;6.614;2023-12-20T13:11:44;5.03;;;2.90;;
39190;SDS011;24916;51.676;6.614;2023-12-20T13:14:09;7.70;;;3.72;;
39190;SDS011;24916;51.676;6.614;2023-12-20T13:16:40;7.13;;;3.78;;
39190;SDS011;24916;51.676;6.614;2023-12-20T13:19:05;8.05;;;3.53;;
39190;SDS011;24916;51.676;6.614;2023-12-20T13:21:30;6.25;;;3.70;;
39190;SDS011;24916;51.676;6.614;2023-12-20T13:23:55;6.97;;;3.63;;
39190;SDS011;24916;51.676;6.614;2023-12-20T13:26:21;6.35;;;3.60;;
39190;SDS011;24916;51.676;6.614;2023-12-20T13:28:46;8.13;;;3.85;;
39190;SDS011;24916;51.676;6.614;2023-12-20T13:31:11;6.80;;;3.95;;
39190;SDS011;24916;51.676;6.614;2023-12-20T13:33:37;7.78;;;4.03;;
39190;SDS011;24916;51.676;6.614;2023-12-20T13:36:02;7.93;;;3.45;;
39190;SDS011;24916;51.676;6.614;2023-12-20T13:38:29;7.90;;;4.00;;
39190;SDS011;24916;51.676;6.614;2023-12-20T13:40:54;5.63;;;3.45;;
39190;SDS011;24916;51.676;6.614;2023-12-20T13:43:19;7.35;;;3.83;;
39190;SDS011;24916;51.676;6.614;2023-12-20T13:45:47;7.45;;;4.47;;
39190;SDS011;24916;51.676;6.614;2023-12-20T13:48:12;7.70;;;3.90;;
39190;SDS011;24916;51.676;6.614;2023-12-20T13:50:37;6.78;;;3.90;;
39190;SDS011;24916;51.676;6.614;2023-12-20T13:53:02;6.03;;;3.60;;
39190;SDS011;24916;51.676;6.614;2023-12-20T13:55:29;5.93;;;3.75;;
39190;SDS011;24916;51.676;6.614;2023-12-20T13:57:55;6.90;;;4.22;;
39190;SDS011;24916;51.676;6.614;2023-12-20T14:00:20;7.60;;;4.20;;
39190;SDS011;24916;51.676;6.614;2023-12-20T14:02:46;7.07;;;3.97;;
39190;SDS011;24916;51.676;6.614;2023-12-20T14:05:11;8.27;;;3.92;;
39190;SDS011;24916;51.676;6.614;2023-12-20T14:07:36;6.95;;;4.00;;
39190;SDS011;24916;51.676;6.614;2023-12-20T14:10:02;6.57;;;3.67;;
39190;SDS011;24916;51.676;6.614;2023-12-20T14:12:27;8.13;;;3.83;;
39190;SDS011;24916;51.676;6.614;2023-12-20T14:14:52;7.78;;;4.35;;
39190;SDS011;24916;51.676;6.614;2023-12-20T14:17:20;7.80;;;4.25;;
39190;SDS011;24916;51.676;6.614;2023-12-20T14:19:46;6.72;;;4.38;;
39190;SDS011;24916;51.676;6.614;2023-12-20T14:22:11;6.78;;;4.05;;
39190;SDS011;24916;51.676;6.614;2023-12-20T14:24:36;10.00;;;4.22;;
39190;SDS011;24916;51.676;6.614;2023-12-20T14:27:01;7.55;;;4.35;;
39190;SDS011;24916;51.676;6.614;2023-12-20T14:29:27;9.50;;;4.90;;
39190;SDS011;24916;51.676;6.614;2023-12-20T14:31:52;6.43;;;3.90;;
39190;SDS011;24916;51.676;6.614;2023-12-20T14:34:17;8.07;;;3.85;;
39190;SDS011;24916;51.676;6.614;2023-12-20T14:36:42;7.32;;;3.95;;
39190;SDS011;24916;51.676;6.614;2023-12-20T14:39:08;7.25;;;3.97;;
39190;SDS011;24916;51.676;6.614;2023-12-20T14:41:33;6.97;;;3.95;;
39190;SDS011;24916;51.676;6.614;2023-12-20T14:43:59;5.18;;;3.75;;